sensor_id;sensor_type;location;lat;lon;timestamp;pressure;altitude;pressure_sealevel;temperature;humidity
13581;BME280;6861;46.170;7.222;2023-02-17T00:01:27;97288.94;;;8.21;42.01
13581;BME280;6861;46.170;7.222;2023-02-17T00:03:56;97295.31;;;8.25;42.18
13581;BME280;6861;46.170;7.222;2023-02-17T00:06:26;97286.91;;;8.23;42.56
13581;BME280;6861;46.170;7.222;2023-02-17T00:08:56;97289.78;;;8.15;43.13
13581;BME280;6861;46.170;7.222;2023-02-17T00:11:25;97292.91;;;8.05;43.00
13581;BME280;6861;46.170;7.222;2023-02-17T00:13:56;97287.44;;;7.88;42.71
13581;BME280;6861;46.170;7.222;2023-02-17T00:16:26;97286.84;;;7.86;43.03
13581;BME280;6861;46.170;7.222;2023-02-17T00:18:56;97282.50;;;7.80;43.17
13581;BME280;6861;46.170;7.222;2023-02-17T00:21:26;97286.22;;;7.73;43.63
13581;BME280;6861;46.170;7.222;2023-02-17T00:23:57;97286.25;;;7.66;44.04
13581;BME280;6861;46.170;7.222;2023-02-17T00:26:26;97284.50;;;7.60;43.32
13581;BME280;6861;46.170;7.222;2023-02-17T00:28:54;97275.72;;;7.54;43.39
13581;BME280;6861;46.170;7.222;2023-02-17T00:31:22;97287.69;;;7.62;44.36
13581;BME280;6861;46.170;7.222;2023-02-17T00:33:53;97279.88;;;7.62;43.89
13581;BME280;6861;46.170;7.222;2023-02-17T00:36:22;97293.44;;;7.71;43.42
13581;BME280;6861;46.170;7.222;2023-02-17T00:38:52;97296.25;;;7.69;43.39
13581;BME280;6861;46.170;7.222;2023-02-17T00:41:22;97302.31;;;7.63;44.40
13581;BME280;6861;46.170;7.222;2023-02-17T00:43:51;97298.81;;;7.51;44.38
13581;BME280;6861;46.170;7.222;2023-02-17T00:46:19;97304.38;;;7.54;44.36
13581;BME280;6861;46.170;7.222;2023-02-17T00:48:47;97303.16;;;7.57;43.79
13581;BME280;6861;46.170;7.222;2023-02-17T00:51:16;97300.97;;;7.54;43.43
13581;BME280;6861;46.170;7.222;2023-02-17T00:53:45;97309.59;;;7.54;43.76
13581;BME280;6861;46.170;7.222;2023-02-17T00:56:13;97310.66;;;7.47;43.76
13581;BME280;6861;46.170;7.222;2023-02-17T00:58:42;97306.28;;;7.41;44.47
13581;BME280;6861;46.170;7.222;2023-02-17T01:01:11;97310.91;;;7.39;44.38
13581;BME280;6861;46.170;7.222;2023-02-17T01:03:40;97306.28;;;7.41;43.77
13581;BME280;6861;46.170;7.222;2023-02-17T01:06:17;97308.03;;;7.47;44.15
13581;BME280;6861;46.170;7.222;2023-02-17T01:08:47;97311.63;;;7.52;43.11
13581;BME280;6861;46.170;7.222;2023-02-17T01:11:16;97314.84;;;7.48;43.20
13581;BME280;6861;46.170;7.222;2023-02-17T01:13:46;97310.06;;;7.45;44.08
13581;BME280;6861;46.170;7.222;2023-02-17T01:16:16;97314.84;;;7.48;44.00
13581;BME280;6861;46.170;7.222;2023-02-17T01:18:44;97314.00;;;7.54;44.18
13581;BME280;6861;46.170;7.222;2023-02-17T01:21:16;97310.72;;;7.65;43.39
13581;BME280;6861;46.170;7.222;2023-02-17T01:23:47;97321.72;;;7.67;44.00
13581;BME280;6861;46.170;7.222;2023-02-17T01:26:17;97339.53;;;7.70;43.47
13581;BME280;6861;46.170;7.222;2023-02-17T01:28:48;97328.09;;;7.71;42.85
13581;BME280;6861;46.170;7.222;2023-02-17T01:31:16;97324.66;;;7.77;43.00
13581;BME280;6861;46.170;7.222;2023-02-17T01:33:45;97326.53;;;7.88;42.85
13581;BME280;6861;46.170;7.222;2023-02-17T01:36:15;97334.44;;;8.00;43.09
13581;BME280;6861;46.170;7.222;2023-02-17T01:38:43;97327.16;;;8.09;42.80
13581;BME280;6861;46.170;7.222;2023-02-17T01:41:13;97326.16;;;8.10;42.69
13581;BME280;6861;46.170;7.222;2023-02-17T01:43:41;97328.75;;;8.10;43.24
13581;BME280;6861;46.170;7.222;2023-02-17T01:46:11;97335.41;;;8.06;43.32
13581;BME280;6861;46.170;7.222;2023-02-17T01:48:42;97329.25;;;8.00;43.70
13581;BME280;6861;46.170;7.222;2023-02-17T01:51:15;97333.94;;;7.92;43.54
13581;BME280;6861;46.170;7.222;2023-02-17T01:53:48;97330.72;;;7.89;44.40
13581;BME280;6861;46.170;7.222;2023-02-17T01:56:20;97318.22;;;7.80;43.80
13581;BME280;6861;46.170;7.222;2023-02-17T01:58:53;97330.00;;;7.82;44.46
13581;BME280;6861;46.170;7.222;2023-02-17T02:01:24;97325.78;;;7.81;44.33
13581;BME280;6861;46.170;7.222;2023-02-17T02:03:52;97327.53;;;7.87;43.51
13581;BME280;6861;46.170;7.222;2023-02-17T02:06:23;97329.03;;;8.02;44.10
13581;BME280;6861;46.170;7.222;2023-02-17T02:08:55;97326.66;;;8.18;43.68
13581;BME280;6861;46.170;7.222;2023-02-17T02:11:25;97324.56;;;8.27;43.74
13581;BME280;6861;46.170;7.222;2023-02-17T02:13:53;97331.28;;;8.41;42.72
13581;BME280;6861;46.170;7.222;2023-02-17T02:16:26;97333.69;;;8.43;43.38
13581;BME280;6861;46.170;7.222;2023-02-17T02:18:59;97321.72;;;8.35;43.37
13581;BME280;6861;46.170;7.222;2023-02-17T02:22:02;97325.75;;;8.31;43.15
13581;BME280;6861;46.170;7.222;2023-02-17T02:24:43;97323.56;;;8.28;42.67
13581;BME280;6861;46.170;7.222;2023-02-17T02:27:41;97315.59;;;8.23;43.95
13581;BME280;6861;46.170;7.222;2023-02-17T02:33:22;97308.38;;;8.00;44.19
13581;BME280;6861;46.170;7.222;2023-02-17T02:35:57;97310.91;;;7.88;44.12
13581;BME280;6861;46.170;7.222;2023-02-17T02:38:29;97312.56;;;7.83;43.72
13581;BME280;6861;46.170;7.222;2023-02-17T02:41:03;97316.69;;;7.72;44.40
13581;BME280;6861;46.170;7.222;2023-02-17T02:43:34;97302.91;;;7.65;44.96
13581;BME280;6861;46.170;7.222;2023-02-17T02:46:02;97306.19;;;7.54;45.17
13581;BME280;6861;46.170;7.222;2023-02-17T02:48:33;97293.56;;;7.26;45.16
13581;BME280;6861;46.170;7.222;2023-02-17T02:51:22;97290.06;;;7.07;45.60
13581;BME280;6861;46.170;7.222;2023-02-17T02:54:14;97288.72;;;6.98;45.80
13581;BME280;6861;46.170;7.222;2023-02-17T02:56:55;97287.44;;;6.82;45.96
13581;BME280;6861;46.170;7.222;2023-02-17T02:59:33;97303.66;;;6.78;45.81
13581;BME280;6861;46.170;7.222;2023-02-17T03:02:14;97298.88;;;6.75;46.52
13581;BME280;6861;46.170;7.222;2023-02-17T03:04:51;97297.69;;;6.71;46.39
13581;BME280;6861;46.170;7.222;2023-02-17T03:07:26;97296.50;;;6.67;47.39
13581;BME280;6861;46.170;7.222;2023-02-17T03:09:57;97286.53;;;6.57;47.38
13581;BME280;6861;46.170;7.222;2023-02-17T03:12:26;97274.94;;;6.60;47.02
13581;BME280;6861;46.170;7.222;2023-02-17T03:14:59;97284.88;;;6.76;47.00
13581;BME280;6861;46.170;7.222;2023-02-17T03:17:29;97287.41;;;6.89;46.29
13581;BME280;6861;46.170;7.222;2023-02-17T03:20:00;97299.28;;;7.10;46.34
13581;BME280;6861;46.170;7.222;2023-02-17T03:22:33;97294.19;;;7.21;46.26
13581;BME280;6861;46.170;7.222;2023-02-17T03:25:02;97288.81;;;7.16;46.14
13581;BME280;6861;46.170;7.222;2023-02-17T03:27:31;97285.03;;;7.12;45.58
13581;BME280;6861;46.170;7.222;2023-02-17T03:29:59;97283.44;;;7.11;46.93
13581;BME280;6861;46.170;7.222;2023-02-17T03:32:27;97276.41;;;7.18;46.86
13581;BME280;6861;46.170;7.222;2023-02-17T03:34:55;97294.53;;;7.32;45.35
13581;BME280;6861;46.170;7.222;2023-02-17T03:37:25;97293.69;;;7.38;45.60
13581;BME280;6861;46.170;7.222;2023-02-17T03:39:53;97303.69;;;7.41;45.48
13581;BME280;6861;46.170;7.222;2023-02-17T03:42:21;97297.88;;;7.39;45.78
13581;BME280;6861;46.170;7.222;2023-02-17T03:44:49;97295.66;;;7.42;45.48
13581;BME280;6861;46.170;7.222;2023-02-17T03:47:17;97295.19;;;7.52;46.14
13581;BME280;6861;46.170;7.222;2023-02-17T03:49:45;97299.13;;;7.61;45.87
13581;BME280;6861;46.170;7.222;2023-02-17T03:52:13;97303.25;;;7.44;45.85
13581;BME280;6861;46.170;7.222;2023-02-17T03:54:43;97300.63;;;7.19;47.03
13581;BME280;6861;46.170;7.222;2023-02-17T03:57:11;97304.69;;;7.08;46.46
13581;BME280;6861;46.170;7.222;2023-02-17T03:59:39;97309.16;;;6.95;46.91
13581;BME280;6861;46.170;7.222;2023-02-17T04:02:07;97302.25;;;6.82;46.66
13581;BME280;6861;46.170;7.222;2023-02-17T04:04:35;97302.44;;;6.87;47.41
13581;BME280;6861;46.170;7.222;2023-02-17T04:07:04;97297.13;;;7.00;46.96
13581;BME280;6861;46.170;7.222;2023-02-17T04:09:32;97298.31;;;7.04;47.00
13581;BME280;6861;46.170;7.222;2023-02-17T04:12:02;97295.53;;;6.99;47.51
13581;BME280;6861;46.170;7.222;2023-02-17T04:14:30;97305.09;;;7.05;46.65
13581;BME280;6861;46.170;7.222;2023-02-17T04:16:58;97309.22;;;7.19;45.96
13581;BME280;6861;46.170;7.222;2023-02-17T04:19:26;97325.56;;;7.33;46.20
13581;BME280;6861;46.170;7.222;2023-02-17T04:21:54;97330.09;;;7.44;46.19
13581;BME280;6861;46.170;7.222;2023-02-17T04:24:23;97326.44;;;7.52;46.39
13581;BME280;6861;46.170;7.222;2023-02-17T04:26:51;97324.16;;;7.62;45.93
13581;BME280;6861;46.170;7.222;2023-02-17T04:29:20;97329.13;;;7.70;45.89
13581;BME280;6861;46.170;7.222;2023-02-17T04:31:48;97337.09;;;7.75;45.29
13581;BME280;6861;46.170;7.222;2023-02-17T04:34:16;97330.00;;;7.82;45.54
13581;BME280;6861;46.170;7.222;2023-02-17T04:36:44;97333.84;;;7.80;45.10
13581;BME280;6861;46.170;7.222;2023-02-17T04:39:13;97340.72;;;7.74;45.61
13581;BME280;6861;46.170;7.222;2023-02-17T04:41:41;97348.78;;;7.66;45.34
13581;BME280;6861;46.170;7.222;2023-02-17T04:44:09;97342.41;;;7.62;46.26
13581;BME280;6861;46.170;7.222;2023-02-17T04:46:38;97341.59;;;7.62;46.52
13581;BME280;6861;46.170;7.222;2023-02-17T04:49:07;97335.22;;;7.57;46.05
13581;BME280;6861;46.170;7.222;2023-02-17T04:51:35;97337.88;;;7.51;45.58
13581;BME280;6861;46.170;7.222;2023-02-17T04:54:03;97329.50;;;7.42;45.79
13581;BME280;6861;46.170;7.222;2023-02-17T04:56:32;97334.94;;;7.41;45.47
13581;BME280;6861;46.170;7.222;2023-02-17T04:59:00;97326.69;;;7.44;45.99
13581;BME280;6861;46.170;7.222;2023-02-17T05:01:28;97326.44;;;7.52;46.37
13581;BME280;6861;46.170;7.222;2023-02-17T05:03:57;97325.19;;;7.61;45.63
13581;BME280;6861;46.170;7.222;2023-02-17T05:06:25;97318.38;;;7.60;45.00
13581;BME280;6861;46.170;7.222;2023-02-17T05:08:53;97313.09;;;7.67;45.44
13581;BME280;6861;46.170;7.222;2023-02-17T05:11:21;97301.94;;;7.60;45.95
13581;BME280;6861;46.170;7.222;2023-02-17T05:13:49;97309.50;;;7.68;44.98
13581;BME280;6861;46.170;7.222;2023-02-17T05:16:17;97303.59;;;7.79;44.92
13581;BME280;6861;46.170;7.222;2023-02-17T05:18:45;97307.28;;;7.89;45.46
13581;BME280;6861;46.170;7.222;2023-02-17T05:21:15;97311.78;;;8.01;45.69
13581;BME280;6861;46.170;7.222;2023-02-17T05:23:43;97304.19;;;7.99;45.73
13581;BME280;6861;46.170;7.222;2023-02-17T05:26:11;97308.59;;;7.99;45.07
13581;BME280;6861;46.170;7.222;2023-02-17T05:28:39;97303.81;;;7.96;45.10
13581;BME280;6861;46.170;7.222;2023-02-17T05:31:07;97303.22;;;7.94;46.12
13581;BME280;6861;46.170;7.222;2023-02-17T05:33:36;97300.47;;;7.88;45.52
13581;BME280;6861;46.170;7.222;2023-02-17T05:36:07;97317.41;;;7.79;46.29
13581;BME280;6861;46.170;7.222;2023-02-17T05:38:37;97308.91;;;7.66;45.56
13581;BME280;6861;46.170;7.222;2023-02-17T05:41:06;97308.78;;;7.54;45.60
13581;BME280;6861;46.170;7.222;2023-02-17T05:43:34;97311.78;;;7.57;45.59
13581;BME280;6861;46.170;7.222;2023-02-17T05:46:02;97308.38;;;7.57;46.24
13581;BME280;6861;46.170;7.222;2023-02-17T05:48:32;97322.78;;;7.60;46.27
13581;BME280;6861;46.170;7.222;2023-02-17T05:51:00;97318.38;;;7.60;45.68
13581;BME280;6861;46.170;7.222;2023-02-17T05:53:29;97323.41;;;7.55;45.54
13581;BME280;6861;46.170;7.222;2023-02-17T05:55:58;97322.84;;;7.53;45.80
13581;BME280;6861;46.170;7.222;2023-02-17T05:58:26;97336.06;;;7.51;46.05
13581;BME280;6861;46.170;7.222;2023-02-17T06:00:54;97326.88;;;7.49;46.09
13581;BME280;6861;46.170;7.222;2023-02-17T06:03:22;97334.13;;;7.40;46.50
13581;BME280;6861;46.170;7.222;2023-02-17T06:05:50;97333.00;;;7.30;46.54
13581;BME280;6861;46.170;7.222;2023-02-17T06:08:18;97331.03;;;7.25;46.36
13581;BME280;6861;46.170;7.222;2023-02-17T06:10:46;97322.66;;;7.16;46.07
13581;BME280;6861;46.170;7.222;2023-02-17T06:13:16;97332.25;;;7.22;47.32
13581;BME280;6861;46.170;7.222;2023-02-17T06:15:44;97325.47;;;7.15;46.68
13581;BME280;6861;46.170;7.222;2023-02-17T06:18:13;97327.28;;;7.14;46.65
13581;BME280;6861;46.170;7.222;2023-02-17T06:20:42;97334.66;;;7.17;46.81
13581;BME280;6861;46.170;7.222;2023-02-17T06:23:10;97337.03;;;7.26;46.39
13581;BME280;6861;46.170;7.222;2023-02-17T06:25:38;97334.34;;;7.39;46.43
13581;BME280;6861;46.170;7.222;2023-02-17T06:28:06;97336.06;;;7.51;46.77
13581;BME280;6861;46.170;7.222;2023-02-17T06:30:35;97342.63;;;7.61;46.51
13581;BME280;6861;46.170;7.222;2023-02-17T06:33:04;97337.78;;;7.64;46.68
13581;BME280;6861;46.170;7.222;2023-02-17T06:35:32;97345.91;;;7.74;46.23
13581;BME280;6861;46.170;7.222;2023-02-17T06:38:00;97349.13;;;7.76;46.13
13581;BME280;6861;46.170;7.222;2023-02-17T06:40:28;97361.13;;;7.77;45.99
13581;BME280;6861;46.170;7.222;2023-02-17T06:42:56;97362.72;;;7.78;46.73
13581;BME280;6861;46.170;7.222;2023-02-17T06:45:24;97358.34;;;7.72;46.49
13581;BME280;6861;46.170;7.222;2023-02-17T06:47:54;97360.22;;;7.65;45.88
13581;BME280;6861;46.170;7.222;2023-02-17T06:50:22;97369.28;;;7.56;47.21
13581;BME280;6861;46.170;7.222;2023-02-17T06:52:50;97374.16;;;7.46;47.21
13581;BME280;6861;46.170;7.222;2023-02-17T06:55:18;97365.16;;;7.42;47.63
13581;BME280;6861;46.170;7.222;2023-02-17T06:57:47;97367.41;;;7.38;46.37
13581;BME280;6861;46.170;7.222;2023-02-17T07:00:16;97369.63;;;7.35;46.61
13581;BME280;6861;46.170;7.222;2023-02-17T07:02:44;97371.44;;;7.34;46.86
13581;BME280;6861;46.170;7.222;2023-02-17T07:05:13;97383.81;;;7.39;47.72
13581;BME280;6861;46.170;7.222;2023-02-17T07:07:41;97386.59;;;7.44;46.32
13581;BME280;6861;46.170;7.222;2023-02-17T07:10:10;97389.38;;;7.49;46.83
13581;BME280;6861;46.170;7.222;2023-02-17T07:12:39;97392.91;;;7.61;46.48
13581;BME280;6861;46.170;7.222;2023-02-17T07:15:08;97391.66;;;7.70;46.55
13581;BME280;6861;46.170;7.222;2023-02-17T07:17:38;97392.81;;;7.74;46.74
13581;BME280;6861;46.170;7.222;2023-02-17T07:20:07;97398.41;;;7.78;46.58
13581;BME280;6861;46.170;7.222;2023-02-17T07:22:37;97402.16;;;7.82;46.67
13581;BME280;6861;46.170;7.222;2023-02-17T07:25:06;97390.69;;;7.89;46.08
13581;BME280;6861;46.170;7.222;2023-02-17T07:27:34;97394.94;;;8.09;45.89
13581;BME280;6861;46.170;7.222;2023-02-17T07:30:03;97393.97;;;8.28;46.14
13581;BME280;6861;46.170;7.222;2023-02-17T07:32:32;97386.38;;;8.51;45.81
13581;BME280;6861;46.170;7.222;2023-02-17T07:35:01;97386.06;;;8.78;45.74
13581;BME280;6861;46.170;7.222;2023-02-17T07:37:29;97384.59;;;9.00;45.28
13581;BME280;6861;46.170;7.222;2023-02-17T07:39:58;97388.66;;;9.14;45.06
13581;BME280;6861;46.170;7.222;2023-02-17T07:42:26;97385.44;;;9.12;45.53
13581;BME280;6861;46.170;7.222;2023-02-17T07:44:55;97380.97;;;9.01;45.16
13581;BME280;6861;46.170;7.222;2023-02-17T07:47:22;97382.28;;;8.92;45.87
13581;BME280;6861;46.170;7.222;2023-02-17T07:49:51;97384.59;;;8.82;45.92
13581;BME280;6861;46.170;7.222;2023-02-17T07:52:18;97391.13;;;8.73;45.99
13581;BME280;6861;46.170;7.222;2023-02-17T07:54:47;97386.72;;;8.73;46.07
13581;BME280;6861;46.170;7.222;2023-02-17T07:57:16;97389.09;;;8.75;46.05
13581;BME280;6861;46.170;7.222;2023-02-17T07:59:45;97390.53;;;8.71;46.09
13581;BME280;6861;46.170;7.222;2023-02-17T08:02:13;97396.13;;;8.74;45.58
13581;BME280;6861;46.170;7.222;2023-02-17T08:04:42;97406.00;;;8.91;45.62
13581;BME280;6861;46.170;7.222;2023-02-17T08:07:10;97405.41;;;9.07;44.97
13581;BME280;6861;46.170;7.222;2023-02-17T08:09:38;97401.69;;;9.14;45.51
13581;BME280;6861;46.170;7.222;2023-02-17T08:12:25;97398.34;;;9.26;45.67
13581;BME280;6861;46.170;7.222;2023-02-17T08:15:19;97402.13;;;9.30;45.35
13581;BME280;6861;46.170;7.222;2023-02-17T08:17:47;97410.09;;;9.35;45.66
13581;BME280;6861;46.170;7.222;2023-02-17T08:20:17;97391.34;;;9.38;45.14
13581;BME280;6861;46.170;7.222;2023-02-17T08:22:45;97401.06;;;9.49;45.09
13581;BME280;6861;46.170;7.222;2023-02-17T08:25:13;97391.28;;;9.44;45.35
13581;BME280;6861;46.170;7.222;2023-02-17T08:27:42;97392.66;;;9.47;44.88
13581;BME280;6861;46.170;7.222;2023-02-17T08:30:11;97388.09;;;9.54;45.02
13581;BME280;6861;46.170;7.222;2023-02-17T08:32:39;97392.88;;;9.45;44.79
13581;BME280;6861;46.170;7.222;2023-02-17T08:35:07;97384.41;;;9.32;44.80
13581;BME280;6861;46.170;7.222;2023-02-17T08:37:36;97388.78;;;9.19;45.17
13581;BME280;6861;46.170;7.222;2023-02-17T08:40:05;97393.44;;;9.17;45.17
13581;BME280;6861;46.170;7.222;2023-02-17T08:42:33;97397.28;;;9.15;45.23
13581;BME280;6861;46.170;7.222;2023-02-17T08:45:02;97392.13;;;9.08;44.78
13581;BME280;6861;46.170;7.222;2023-02-17T08:47:30;97389.53;;;9.08;45.25
13581;BME280;6861;46.170;7.222;2023-02-17T08:49:58;97388.16;;;9.06;44.78
13581;BME280;6861;46.170;7.222;2023-02-17T08:52:26;97390.41;;;9.02;45.04
13581;BME280;6861;46.170;7.222;2023-02-17T08:54:55;97388.50;;;9.09;44.86
13581;BME280;6861;46.170;7.222;2023-02-17T08:57:23;97388.03;;;9.31;44.60
13581;BME280;6861;46.170;7.222;2023-02-17T08:59:52;97379.94;;;9.62;44.48
13581;BME280;6861;46.170;7.222;2023-02-17T09:02:21;97378.66;;;9.95;44.09
13581;BME280;6861;46.170;7.222;2023-02-17T09:04:49;97391.91;;;10.35;43.50
13581;BME280;6861;46.170;7.222;2023-02-17T09:07:17;97388.56;;;10.63;43.45
13581;BME280;6861;46.170;7.222;2023-02-17T09:09:45;97394.13;;;10.78;42.64
13581;BME280;6861;46.170;7.222;2023-02-17T09:12:14;97391.16;;;10.86;42.93
13581;BME280;6861;46.170;7.222;2023-02-17T09:14:42;97386.13;;;10.96;42.87
13581;BME280;6861;46.170;7.222;2023-02-17T09:17:10;97382.06;;;11.17;42.42
13581;BME280;6861;46.170;7.222;2023-02-17T09:19:39;97392.91;;;11.37;41.57
13581;BME280;6861;46.170;7.222;2023-02-17T09:22:08;97392.16;;;11.54;42.20
13581;BME280;6861;46.170;7.222;2023-02-17T09:24:51;97391.06;;;11.66;41.12
13581;BME280;6861;46.170;7.222;2023-02-17T09:27:19;97394.34;;;11.73;41.53
13581;BME280;6861;46.170;7.222;2023-02-17T09:29:47;97401.00;;;11.93;40.89
13581;BME280;6861;46.170;7.222;2023-02-17T09:32:15;97393.69;;;12.11;40.36
13581;BME280;6861;46.170;7.222;2023-02-17T09:34:45;97399.06;;;12.22;40.09
13581;BME280;6861;46.170;7.222;2023-02-17T09:37:20;97401.28;;;12.30;40.95
13581;BME280;6861;46.170;7.222;2023-02-17T09:39:49;97401.44;;;12.23;40.70
13581;BME280;6861;46.170;7.222;2023-02-17T09:42:19;97397.31;;;12.27;40.55
13581;BME280;6861;46.170;7.222;2023-02-17T09:44:50;97394.59;;;12.39;40.17
13581;BME280;6861;46.170;7.222;2023-02-17T09:47:24;97396.50;;;12.43;40.42
13581;BME280;6861;46.170;7.222;2023-02-17T09:49:58;97396.81;;;12.47;39.57
13581;BME280;6861;46.170;7.222;2023-02-17T09:52:32;97393.47;;;12.52;39.98
13581;BME280;6861;46.170;7.222;2023-02-17T09:55:06;97400.63;;;12.56;39.68
13581;BME280;6861;46.170;7.222;2023-02-17T09:57:39;97389.88;;;12.58;38.84
13581;BME280;6861;46.170;7.222;2023-02-17T10:00:11;97393.13;;;12.65;38.45
13581;BME280;6861;46.170;7.222;2023-02-17T10:02:46;97387.38;;;12.68;38.81
13581;BME280;6861;46.170;7.222;2023-02-17T10:05:22;97394.84;;;12.76;38.60
13581;BME280;6861;46.170;7.222;2023-02-17T10:07:55;97401.34;;;12.90;37.95
13581;BME280;6861;46.170;7.222;2023-02-17T10:10:27;97399.25;;;13.14;37.36
13581;BME280;6861;46.170;7.222;2023-02-17T10:12:59;97396.75;;;13.24;38.11
13581;BME280;6861;46.170;7.222;2023-02-17T10:15:33;97397.97;;;13.38;37.37
13581;BME280;6861;46.170;7.222;2023-02-17T10:18:09;97397.97;;;13.65;36.72
13581;BME280;6861;46.170;7.222;2023-02-17T10:20:43;97401.84;;;13.90;36.93
13581;BME280;6861;46.170;7.222;2023-02-17T10:23:17;97401.41;;;13.98;37.06
13581;BME280;6861;46.170;7.222;2023-02-17T10:26:08;97408.34;;;14.09;37.84
13581;BME280;6861;46.170;7.222;2023-02-17T10:28:48;97405.25;;;14.17;37.93
13581;BME280;6861;46.170;7.222;2023-02-17T10:31:24;97405.81;;;14.24;37.75
13581;BME280;6861;46.170;7.222;2023-02-17T10:34:00;97411.16;;;14.34;37.14
13581;BME280;6861;46.170;7.222;2023-02-17T10:36:39;97397.31;;;14.44;36.81
13581;BME280;6861;46.170;7.222;2023-02-17T10:39:13;97402.94;;;14.58;36.92
13581;BME280;6861;46.170;7.222;2023-02-17T10:41:44;97402.47;;;14.71;36.78
13581;BME280;6861;46.170;7.222;2023-02-17T10:44:18;97398.31;;;14.85;36.56
13581;BME280;6861;46.170;7.222;2023-02-17T10:46:49;97386.53;;;15.03;36.41
13581;BME280;6861;46.170;7.222;2023-02-17T10:49:22;97395.53;;;15.12;36.39
13581;BME280;6861;46.170;7.222;2023-02-17T10:51:53;97395.84;;;15.26;35.90
13581;BME280;6861;46.170;7.222;2023-02-17T10:54:28;97392.16;;;15.27;35.81
13581;BME280;6861;46.170;7.222;2023-02-17T10:57:00;97389.50;;;15.27;35.85
13581;BME280;6861;46.170;7.222;2023-02-17T10:59:33;97384.78;;;15.29;35.69
13581;BME280;6861;46.170;7.222;2023-02-17T11:02:14;97385.53;;;15.19;35.74
13581;BME280;6861;46.170;7.222;2023-02-17T11:04:45;97386.31;;;15.20;35.47
13581;BME280;6861;46.170;7.222;2023-02-17T11:07:16;97389.47;;;15.12;35.70
13581;BME280;6861;46.170;7.222;2023-02-17T11:09:47;97379.97;;;15.11;35.26
13581;BME280;6861;46.170;7.222;2023-02-17T11:12:20;97373.69;;;15.22;34.85
13581;BME280;6861;46.170;7.222;2023-02-17T11:14:51;97371.63;;;15.39;34.36
13581;BME280;6861;46.170;7.222;2023-02-17T11:17:24;97362.69;;;15.55;34.41
13581;BME280;6861;46.170;7.222;2023-02-17T11:19:56;97362.72;;;15.76;34.13
13581;BME280;6861;46.170;7.222;2023-02-17T11:22:32;97357.69;;;15.89;33.89
13581;BME280;6861;46.170;7.222;2023-02-17T11:25:04;97353.72;;;16.07;33.25
13581;BME280;6861;46.170;7.222;2023-02-17T11:27:32;97342.38;;;16.17;33.37
13581;BME280;6861;46.170;7.222;2023-02-17T11:30:07;97336.03;;;16.18;33.02
13581;BME280;6861;46.170;7.222;2023-02-17T11:32:36;97331.00;;;16.21;33.11
13581;BME280;6861;46.170;7.222;2023-02-17T11:35:19;97327.31;;;16.12;32.83
13581;BME280;6861;46.170;7.222;2023-02-17T11:37:51;97312.28;;;16.02;32.61
13581;BME280;6861;46.170;7.222;2023-02-17T11:40:24;97316.78;;;16.02;32.62
13581;BME280;6861;46.170;7.222;2023-02-17T11:42:57;97304.63;;;16.06;32.39
13581;BME280;6861;46.170;7.222;2023-02-17T11:45:28;97310.69;;;16.06;32.86
13581;BME280;6861;46.170;7.222;2023-02-17T11:48:10;97293.53;;;15.99;32.41
13581;BME280;6861;46.170;7.222;2023-02-17T11:50:52;97296.19;;;15.94;32.59
13581;BME280;6861;46.170;7.222;2023-02-17T11:53:43;97288.00;;;15.85;32.59
13581;BME280;6861;46.170;7.222;2023-02-17T11:56:16;97281.16;;;15.79;32.33
13581;BME280;6861;46.170;7.222;2023-02-17T11:59:08;97289.34;;;15.72;32.31
13581;BME280;6861;46.170;7.222;2023-02-17T12:01:53;97280.38;;;15.63;32.14
13581;BME280;6861;46.170;7.222;2023-02-17T12:04:26;97268.22;;;15.52;32.07
13581;BME280;6861;46.170;7.222;2023-02-17T12:07:14;97262.16;;;15.41;31.97
13581;BME280;6861;46.170;7.222;2023-02-17T12:09:52;97256.06;;;15.31;31.65
13581;BME280;6861;46.170;7.222;2023-02-17T12:12:32;97253.16;;;15.22;31.79
13581;BME280;6861;46.170;7.222;2023-02-17T12:15:20;97237.34;;;15.12;31.79
13581;BME280;6861;46.170;7.222;2023-02-17T12:17:55;97244.19;;;15.13;31.73
13581;BME280;6861;46.170;7.222;2023-02-17T12:20:40;97237.06;;;15.08;31.82
13581;BME280;6861;46.170;7.222;2023-02-17T12:23:25;97236.78;;;15.05;31.85
13581;BME280;6861;46.170;7.222;2023-02-17T12:25:58;97233.63;;;15.03;31.84
13581;BME280;6861;46.170;7.222;2023-02-17T12:28:40;97225.97;;;15.01;31.69
13581;BME280;6861;46.170;7.222;2023-02-17T12:31:18;97225.44;;;14.99;31.65
13581;BME280;6861;46.170;7.222;2023-02-17T12:33:55;97230.72;;;14.99;31.65
13581;BME280;6861;46.170;7.222;2023-02-17T12:36:28;97232.03;;;15.02;31.58
13581;BME280;6861;46.170;7.222;2023-02-17T12:39:00;97219.66;;;15.07;31.36
13581;BME280;6861;46.170;7.222;2023-02-17T12:41:33;97216.50;;;15.05;30.88
13581;BME280;6861;46.170;7.222;2023-02-17T12:44:05;97214.91;;;15.04;30.79
13581;BME280;6861;46.170;7.222;2023-02-17T12:46:41;97208.59;;;15.05;31.01
13581;BME280;6861;46.170;7.222;2023-02-17T12:49:12;97208.59;;;15.05;30.55
13581;BME280;6861;46.170;7.222;2023-02-17T12:51:46;97208.59;;;15.00;30.48
13581;BME280;6861;46.170;7.222;2023-02-17T12:54:19;97203.56;;;15.04;30.45
13581;BME280;6861;46.170;7.222;2023-02-17T12:57:09;97197.53;;;15.14;30.22
13581;BME280;6861;46.170;7.222;2023-02-17T12:59:41;97190.66;;;15.23;30.66
13581;BME280;6861;46.170;7.222;2023-02-17T13:02:12;97187.50;;;15.31;30.60
13581;BME280;6861;46.170;7.222;2023-02-17T13:04:41;97191.19;;;15.40;30.10
13581;BME280;6861;46.170;7.222;2023-02-17T13:07:35;97187.22;;;15.48;29.73
13581;BME280;6861;46.170;7.222;2023-02-17T13:10:15;97178.25;;;15.54;30.08
13581;BME280;6861;46.170;7.222;2023-02-17T13:12:57;97176.94;;;15.56;29.71
13581;BME280;6861;46.170;7.222;2023-02-17T13:15:32;97163.47;;;15.63;30.18
13581;BME280;6861;46.170;7.222;2023-02-17T13:18:02;97163.19;;;15.69;29.65
13581;BME280;6861;46.170;7.222;2023-02-17T13:20:42;97144.72;;;15.74;29.82
13581;BME280;6861;46.170;7.222;2023-02-17T13:23:13;97140.50;;;15.73;29.82
13581;BME280;6861;46.170;7.222;2023-02-17T13:25:41;97149.44;;;15.83;29.96
13581;BME280;6861;46.170;7.222;2023-02-17T13:28:33;97143.34;;;15.87;29.50
13581;BME280;6861;46.170;7.222;2023-02-17T13:31:12;97144.66;;;15.90;29.55
13581;BME280;6861;46.170;7.222;2023-02-17T13:33:44;97139.63;;;15.93;29.58
13581;BME280;6861;46.170;7.222;2023-02-17T13:36:16;97130.94;;;15.93;29.81
13581;BME280;6861;46.170;7.222;2023-02-17T13:38:58;97130.91;;;15.98;29.50
13581;BME280;6861;46.170;7.222;2023-02-17T13:41:31;97135.91;;;15.99;29.45
13581;BME280;6861;46.170;7.222;2023-02-17T13:44:20;97138.28;;;16.06;28.95